White Star — ZCNP2 — position and weather

sailwx.info

Track history (hours):
 
Tides and Currents Weather Stations Pressure Air Temp Water Temp Dewpoint Dewpoint Depression Visibility Wind Speed Wind Dir Waves Ship Positions

White Star

Last reported at 2016-Jul-23 12:15 UTC. Time now 2016-Jul-23 23:10 UTC.
Position N 40°35' E 014°26'.

Length 45 m; draft 2.7 m.

Type: Pleasure craft. MMSI: 319035000.

Date/timePositionNaut miles runAvg speedWind from/ knotsBaromVisibWave heightAir tempDewpointWater temp
2016-Jul-23 12:15N 40°35' E 014°26'1 0.6
2016-Jul-23 11:20N 40°35' E 014°27'5 0.3
2016-Jul-22 17:32N 40°34' E 014°21'5 4.0
2016-Jul-22 16:14N 40°32' E 014°14'0 0.0
2016-Jul-22 15:32N 40°32' E 014°14'0 0.0
2016-Jul-22 14:29N 40°32' E 014°14'0 0.0
2016-Jul-22 11:26N 40°32' E 014°14'0 0.0
2016-Jul-22 04:07N 40°32' E 014°14'0 0.0
2016-Jul-22 03:28N 40°32' E 014°14'0 0.0
2016-Jul-22 02:31N 40°32' E 014°14'0 0.0
2016-Jul-22 01:31N 40°32' E 014°14'0 0.0
2016-Jul-22 00:31N 40°32' E 014°14'0 0.0
2016-Jul-21 23:28N 40°32' E 014°14'0 0.0
2016-Jul-21 22:31N 40°32' E 014°14'0 0.0
2016-Jul-21 21:25N 40°32' E 014°14'0 0.0
2016-Jul-21 20:16N 40°32' E 014°14'0 0.0
2016-Jul-21 19:31N 40°32' E 014°14'0 0.0
2016-Jul-21 18:19N 40°32' E 014°14'0 0.0
2016-Jul-21 16:31N 40°32' E 014°14'0 0.0
2016-Jul-21 15:31N 40°32' E 014°14'0 0.0
2016-Jul-21 14:31N 40°32' E 014°14'0 0.0
2016-Jul-21 13:31N 40°32' E 014°14'0 0.0
2016-Jul-21 12:25N 40°32' E 014°14'0 0.0
2016-Jul-21 10:22N 40°32' E 014°14'0 0.0
2016-Jul-21 08:31N 40°32' E 014°14'0 0.0
2016-Jul-21 07:13N 40°32' E 014°14'0 0.0
2016-Jul-21 06:31N 40°32' E 014°14'2 0.2
2016-Jul-20 15:21N 40°34' E 014°17'1214.6
2016-Jul-20 14:33N 40°42' E 014°27'1 1.0
2016-Jul-20 13:26N 40°43' E 014°29'0 0.0
2016-Jul-20 12:32N 40°43' E 014°29'0 0.0
2016-Jul-20 11:32N 40°43' E 014°29'0 0.0
2016-Jul-20 10:32N 40°43' E 014°29'0 0.0
2016-Jul-20 09:26N 40°43' E 014°29'0 0.0
2016-Jul-20 08:32N 40°43' E 014°29'0 0.0
2016-Jul-20 07:20N 40°43' E 014°29'0 0.0
2016-Jul-20 06:08N 40°43' E 014°29'0 0.0
2016-Jul-20 05:32N 40°43' E 014°29'0 0.0
2016-Jul-20 04:32N 40°43' E 014°29'0 0.0
2016-Jul-20 03:32N 40°43' E 014°29'0 0.0
2016-Jul-20 02:32N 40°43' E 014°29'0 0.0
2016-Jul-20 01:32N 40°43' E 014°29'0 0.0
2016-Jul-20 00:20N 40°43' E 014°29'0 0.0
2016-Jul-19 23:32N 40°43' E 014°29'0 0.0
2016-Jul-19 22:32N 40°43' E 014°29'0 0.0
2016-Jul-19 21:32N 40°43' E 014°29'0 0.0
2016-Jul-19 20:32N 40°43' E 014°29'0 0.0
2016-Jul-19 19:32N 40°43' E 014°29'0 0.0
2016-Jul-19 18:32N 40°43' E 014°29'2 2.5
2016-Jul-19 17:33N 40°43' E 014°25'1816.5
2016-Jul-19 16:29N 40°41' E 014°02'1616.5
2016-Jul-19 15:29N 40°42' E 013°41'1616.7
2016-Jul-19 14:33N 40°46' E 013°21'1716.6
2016-Jul-19 13:33N 40°51' E 012°60'3 2.8
2016-Jul-19 12:26N 40°54' E 012°57'0 0.0
2016-Jul-19 11:07N 40°54' E 012°57'0 0.0
2016-Jul-19 10:29N 40°54' E 012°57'2 0.4
2016-Jul-19 06:33N 40°55' E 012°58'0 0.0
2016-Jul-19 04:27N 40°55' E 012°58'0 0.0
2016-Jul-19 03:33N 40°55' E 012°58'0 0.0
2016-Jul-19 02:33N 40°55' E 012°58'0 0.0
2016-Jul-19 01:33N 40°55' E 012°58'0 0.0
2016-Jul-18 23:27N 40°55' E 012°58'0 0.0
2016-Jul-18 21:27N 40°55' E 012°58'0 0.0
2016-Jul-18 20:21N 40°55' E 012°58'0 0.0
2016-Jul-18 19:33N 40°55' E 012°58'0 0.0
2016-Jul-18 18:09N 40°55' E 012°58'0 0.0
2016-Jul-18 17:33N 40°55' E 012°58'0 0.0
2016-Jul-18 16:33N 40°55' E 012°58'0 0.0
2016-Jul-18 15:33N 40°55' E 012°58'0 0.0
2016-Jul-18 14:33N 40°55' E 012°58'0 0.0
2016-Jul-18 13:27N 40°55' E 012°58'0 0.0
2016-Jul-18 12:27N 40°55' E 012°58'0 0.0
2016-Jul-18 10:08N 40°55' E 012°58'0 0.0
2016-Jul-18 09:20N 40°55' E 012°58'0 0.0
2016-Jul-18 08:26N 40°55' E 012°58'0 0.0
2016-Jul-18 07:32N 40°55' E 012°58'0 0.0
2016-Jul-18 06:20N 40°55' E 012°58'0 0.0
2016-Jul-18 05:32N 40°55' E 012°58'0 0.0
2016-Jul-18 04:32N 40°55' E 012°58'  
Track history (hours):
 
Tides and Currents Weather Stations Pressure Air Temp Water Temp Dewpoint Dewpoint Depression Visibility Wind Speed Wind Dir Waves Ship Positions

White Star

Last reported at 2016-Jul-23 12:15 UTC. Time now 2016-Jul-23 23:10 UTC.
Position N 40°35' E 014°26'.

Length 45 m; draft 2.7 m.

Type: Pleasure craft. MMSI: 319035000.

Date/timePositionNaut miles runAvg speedWind from/ knotsBaromVisibWave heightAir tempDewpointWater temp
2016-Jul-23 12:15N 40°35' E 014°26'1 0.6
2016-Jul-23 11:20N 40°35' E 014°27'5 0.3
2016-Jul-22 17:32N 40°34' E 014°21'5 4.0
2016-Jul-22 16:14N 40°32' E 014°14'0 0.0
2016-Jul-22 15:32N 40°32' E 014°14'0 0.0
2016-Jul-22 14:29N 40°32' E 014°14'0 0.0
2016-Jul-22 11:26N 40°32' E 014°14'0 0.0
2016-Jul-22 04:07N 40°32' E 014°14'0 0.0
2016-Jul-22 03:28N 40°32' E 014°14'0 0.0
2016-Jul-22 02:31N 40°32' E 014°14'0 0.0
2016-Jul-22 01:31N 40°32' E 014°14'0 0.0
2016-Jul-22 00:31N 40°32' E 014°14'0 0.0
2016-Jul-21 23:28N 40°32' E 014°14'0 0.0
2016-Jul-21 22:31N 40°32' E 014°14'0 0.0
2016-Jul-21 21:25N 40°32' E 014°14'0 0.0
2016-Jul-21 20:16N 40°32' E 014°14'0 0.0
2016-Jul-21 19:31N 40°32' E 014°14'0 0.0
2016-Jul-21 18:19N 40°32' E 014°14'0 0.0
2016-Jul-21 16:31N 40°32' E 014°14'0 0.0
2016-Jul-21 15:31N 40°32' E 014°14'0 0.0
2016-Jul-21 14:31N 40°32' E 014°14'0 0.0
2016-Jul-21 13:31N 40°32' E 014°14'0 0.0
2016-Jul-21 12:25N 40°32' E 014°14'0 0.0
2016-Jul-21 10:22N 40°32' E 014°14'0 0.0
2016-Jul-21 08:31N 40°32' E 014°14'0 0.0
2016-Jul-21 07:13N 40°32' E 014°14'0 0.0
2016-Jul-21 06:31N 40°32' E 014°14'2 0.2
2016-Jul-20 15:21N 40°34' E 014°17'1214.6
2016-Jul-20 14:33N 40°42' E 014°27'1 1.0
2016-Jul-20 13:26N 40°43' E 014°29'0 0.0
2016-Jul-20 12:32N 40°43' E 014°29'0 0.0
2016-Jul-20 11:32N 40°43' E 014°29'0 0.0
2016-Jul-20 10:32N 40°43' E 014°29'0 0.0
2016-Jul-20 09:26N 40°43' E 014°29'0 0.0
2016-Jul-20 08:32N 40°43' E 014°29'0 0.0
2016-Jul-20 07:20N 40°43' E 014°29'0 0.0
2016-Jul-20 06:08N 40°43' E 014°29'0 0.0
2016-Jul-20 05:32N 40°43' E 014°29'0 0.0
2016-Jul-20 04:32N 40°43' E 014°29'0 0.0
2016-Jul-20 03:32N 40°43' E 014°29'0 0.0
2016-Jul-20 02:32N 40°43' E 014°29'0 0.0
2016-Jul-20 01:32N 40°43' E 014°29'0 0.0
2016-Jul-20 00:20N 40°43' E 014°29'0 0.0
2016-Jul-19 23:32N 40°43' E 014°29'0 0.0
2016-Jul-19 22:32N 40°43' E 014°29'0 0.0
2016-Jul-19 21:32N 40°43' E 014°29'0 0.0
2016-Jul-19 20:32N 40°43' E 014°29'0 0.0
2016-Jul-19 19:32N 40°43' E 014°29'0 0.0
2016-Jul-19 18:32N 40°43' E 014°29'2 2.5
2016-Jul-19 17:33N 40°43' E 014°25'1816.5
2016-Jul-19 16:29N 40°41' E 014°02'1616.5
2016-Jul-19 15:29N 40°42' E 013°41'1616.7
2016-Jul-19 14:33N 40°46' E 013°21'1716.6
2016-Jul-19 13:33N 40°51' E 012°60'3 2.8
2016-Jul-19 12:26N 40°54' E 012°57'0 0.0
2016-Jul-19 11:07N 40°54' E 012°57'0 0.0
2016-Jul-19 10:29N 40°54' E 012°57'2 0.4
2016-Jul-19 06:33N 40°55' E 012°58'0 0.0
2016-Jul-19 04:27N 40°55' E 012°58'0 0.0
2016-Jul-19 03:33N 40°55' E 012°58'0 0.0
2016-Jul-19 02:33N 40°55' E 012°58'0 0.0
2016-Jul-19 01:33N 40°55' E 012°58'0 0.0
2016-Jul-18 23:27N 40°55' E 012°58'0 0.0
2016-Jul-18 21:27N 40°55' E 012°58'0 0.0
2016-Jul-18 20:21N 40°55' E 012°58'0 0.0
2016-Jul-18 19:33N 40°55' E 012°58'0 0.0
2016-Jul-18 18:09N 40°55' E 012°58'0 0.0
2016-Jul-18 17:33N 40°55' E 012°58'0 0.0
2016-Jul-18 16:33N 40°55' E 012°58'0 0.0
2016-Jul-18 15:33N 40°55' E 012°58'0 0.0
2016-Jul-18 14:33N 40°55' E 012°58'0 0.0
2016-Jul-18 13:27N 40°55' E 012°58'0 0.0
2016-Jul-18 12:27N 40°55' E 012°58'0 0.0
2016-Jul-18 10:08N 40°55' E 012°58'0 0.0
2016-Jul-18 09:20N 40°55' E 012°58'0 0.0
2016-Jul-18 08:26N 40°55' E 012°58'0 0.0
2016-Jul-18 07:32N 40°55' E 012°58'0 0.0
2016-Jul-18 06:20N 40°55' E 012°58'0 0.0
2016-Jul-18 05:32N 40°55' E 012°58'0 0.0
2016-Jul-18 04:32N 40°55' E 012°58'  

Dump ship's entire track history